Time;durP1;ratioP1;P1;durP2;ratioP2;P2;SDS_P1;SDS_P2;PMS_P1;PMS_P2;Temp;Humidity;BMP_temperature;BMP_pressure;BME280_temperature;BME280_humidity;BME280_pressure;Samples;Min_cycle;Max_cycle;Signal;HPM_P1;HPM_P2
2021/10/08 00:01:31;;;;;;;;;7.25;6.25;;;;;23.50;42.82;102709.06;5063916;28;45471;-67
2021/10/08 00:03:56;;;;;;;;;5.00;5.00;;;;;23.62;42.86;102717.72;5075377;28;45500;-67
2021/10/08 00:06:22;;;;;;;;;8.25;7.00;;;;;23.61;43.03;102716.88;5076479;28;46023;-67
2021/10/08 00:08:48;;;;;;;;;7.50;5.25;;;;;23.62;43.26;102723.88;5075250;28;45810;-67
2021/10/08 00:11:14;;;;;;;;;6.00;6.00;;;;;23.63;42.96;102724.69;5073847;28;47857;-67
2021/10/08 00:13:40;;;;;;;;;9.50;6.75;;;;;23.64;43.10;102729.03;5073601;28;45498;-67
2021/10/08 00:16:06;;;;;;;;;6.00;6.00;;;;;23.66;42.92;102731.53;5074566;28;46138;-67
2021/10/08 00:18:32;;;;;;;;;6.00;4.75;;;;;23.66;43.34;102732.38;5076323;28;45289;-67
2021/10/08 00:20:58;;;;;;;;;7.00;7.00;;;;;23.66;43.06;102728.88;5076290;28;45359;-67
2021/10/08 00:23:24;;;;;;;;;5.25;5.00;;;;;23.66;43.13;102726.22;5074194;28;45527;-67
2021/10/08 00:25:49;;;;;;;;;7.25;5.75;;;;;23.67;43.10;102736.72;5073970;28;46205;-67
2021/10/08 00:28:14;;;;;;;;;4.00;4.00;;;;;23.67;43.01;102734.06;5058040;28;45502;-67
2021/10/08 00:30:40;;;;;;;;;4.00;4.00;;;;;23.67;42.80;102736.72;5074805;28;45614;-67
2021/10/08 00:33:05;;;;;;;;;4.00;4.00;;;;;23.63;42.74;102728.19;5075712;28;45640;-67
2021/10/08 00:35:30;;;;;;;;;5.25;5.00;;;;;23.67;43.10;102738.53;5074769;28;45472;-67
2021/10/08 00:37:56;;;;;;;;;9.75;7.00;;;;;23.67;43.10;102739.38;5073076;28;45488;-67
2021/10/08 00:40:22;;;;;;;;;5.00;5.00;;;;;23.67;42.71;102742.03;5074870;28;45354;-66
2021/10/08 00:42:49;;;;;;;;;6.25;5.00;;;;;23.68;42.87;102740.22;5074860;28;45591;-67
2021/10/08 00:45:15;;;;;;;;;3.50;3.50;;;;;23.67;43.27;102741.19;5076194;28;45986;-67
2021/10/08 00:47:40;;;;;;;;;6.00;6.00;;;;;23.66;42.71;102745.66;5074473;28;45454;-67
2021/10/08 00:50:08;;;;;;;;;8.00;6.00;;;;;23.66;42.75;102742.16;5074805;27;45539;-67
2021/10/08 00:52:33;;;;;;;;;4.25;4.25;;;;;23.65;43.46;102735.19;5073172;28;45268;-67
2021/10/08 00:54:58;;;;;;;;;6.75;4.75;;;;;23.67;43.27;102747.34;5074483;28;46100;-67
2021/10/08 00:57:24;;;;;;;;;6.00;5.00;;;;;23.67;43.09;102739.38;5076527;28;45352;-67
2021/10/08 00:59:50;;;;;;;;;6.75;6.25;;;;;23.57;43.15;102727.94;5074528;28;45464;-67
2021/10/08 01:02:16;;;;;;;;;4.00;4.00;;;;;23.67;42.83;102743.84;5074391;28;45425;-67
2021/10/08 01:04:41;;;;;;;;;10.00;5.00;;;;;23.65;43.01;102741.34;5074320;28;46216;-67
2021/10/08 01:07:07;;;;;;;;;6.00;5.50;;;;;23.63;43.33;102745.94;5074345;28;45751;-67
2021/10/08 01:09:32;;;;;;;;;6.00;6.00;;;;;23.66;43.02;102748.31;5075690;28;45394;-67
2021/10/08 01:11:58;;;;;;;;;5.50;5.50;;;;;23.66;43.33;102750.13;5075183;28;45452;-67
2021/10/08 01:14:24;;;;;;;;;7.00;4.75;;;;;23.65;43.18;102745.81;5073730;28;45380;-66
2021/10/08 01:16:49;;;;;;;;;4.25;4.25;;;;;23.58;42.87;102737.56;5072522;28;45331;-66
2021/10/08 01:19:14;;;;;;;;;4.25;4.25;;;;;23.65;43.03;102740.50;5074378;27;45300;-67
2021/10/08 01:21:40;;;;;;;;;5.00;4.00;;;;;23.65;42.79;102751.13;5073256;28;45558;-66
2021/10/08 01:24:05;;;;;;;;;4.00;4.00;;;;;23.64;42.94;102747.63;5075892;28;47162;-67
2021/10/08 01:26:30;;;;;;;;;8.75;5.50;;;;;23.65;43.17;102745.81;5074075;28;45494;-67
2021/10/08 01:28:56;;;;;;;;;4.00;4.00;;;;;23.51;42.65;102727.53;5073822;28;45495;-67
2021/10/08 01:31:21;;;;;;;;;7.50;5.25;;;;;23.65;42.54;102733.38;5072566;28;45446;-67
2021/10/08 01:33:46;;;;;;;;;4.00;4.00;;;;;23.63;42.90;102741.47;5073830;28;46236;-67
2021/10/08 01:36:12;;;;;;;;;4.00;4.00;;;;;23.65;42.79;102741.34;5074414;28;45244;-67
2021/10/08 01:38:37;;;;;;;;;6.00;4.00;;;;;23.66;43.10;102740.34;5074017;28;45505;-67
2021/10/08 01:41:02;;;;;;;;;5.00;5.00;;;;;23.61;42.69;102731.97;5073881;28;45465;-67
2021/10/08 01:43:28;;;;;;;;;4.00;4.00;;;;;23.66;42.53;102735.03;5073347;28;46033;-66
2021/10/08 01:45:53;;;;;;;;;7.00;5.75;;;;;23.65;42.90;102736.03;5073970;28;45398;-66
2021/10/08 01:48:19;;;;;;;;;6.50;5.00;;;;;23.67;42.96;102736.72;5075853;28;45422;-67
2021/10/08 01:50:44;;;;;;;;;4.00;4.00;;;;;23.68;43.04;102740.22;5073778;28;45260;-66
2021/10/08 01:53:10;;;;;;;;;4.00;4.00;;;;;23.65;43.04;102741.34;5073538;28;46033;-66
2021/10/08 01:55:35;;;;;;;;;6.75;6.00;;;;;23.69;42.65;102736.56;5071995;28;45399;-67
2021/10/08 01:58:01;;;;;;;;;5.75;4.50;;;;;23.65;42.78;102728.06;5073449;28;45267;-67
2021/10/08 02:00:26;;;;;;;;;4.50;4.50;;;;;23.69;43.14;102737.41;5075080;28;45258;-66
2021/10/08 02:02:51;;;;;;;;;4.75;4.75;;;;;23.68;42.80;102727.75;5072589;28;46919;-67
2021/10/08 02:05:17;;;;;;;;;4.50;4.25;;;;;23.69;43.07;102724.13;5073225;28;45388;-66
2021/10/08 02:07:42;;;;;;;;;4.00;4.00;;;;;23.68;43.06;102730.41;5073687;28;45334;-67
2021/10/08 02:10:08;;;;;;;;;5.00;3.50;;;;;23.67;42.97;102720.78;5072083;28;45605;-66
2021/10/08 02:12:35;;;;;;;;;5.75;4.00;;;;;23.60;42.62;102714.38;5073854;28;46129;-67
2021/10/08 02:15:00;;;;;;;;;3.00;3.00;;;;;23.67;43.12;102719.94;5074766;28;45454;-67
2021/10/08 02:17:25;;;;;;;;;4.25;4.25;;;;;23.67;42.88;102726.09;5073451;28;45450;-67
2021/10/08 02:19:51;;;;;;;;;4.50;4.00;;;;;23.66;42.48;102726.22;5073388;28;45461;-67
2021/10/08 02:22:16;;;;;;;;;4.00;4.00;;;;;23.66;43.11;102727.06;5073222;28;46511;-66
2021/10/08 02:24:41;;;;;;;;;6.50;3.25;;;;;23.66;42.97;102721.75;5073366;28;45480;-67
2021/10/08 02:27:07;;;;;;;;;5.00;3.25;;;;;23.56;42.82;102699.69;5075079;28;45477;-66
2021/10/08 02:29:32;;;;;;;;;5.00;4.00;;;;;23.66;42.93;102718.25;5073393;28;45449;-66
2021/10/08 02:31:57;;;;;;;;;4.00;2.75;;;;;23.65;42.58;102716.59;5067927;28;48336;-67
2021/10/08 02:34:23;;;;;;;;;5.75;5.00;;;;;23.65;42.67;102720.09;5071571;28;45393;-66
2021/10/08 02:36:49;;;;;;;;;7.00;5.25;;;;;23.63;42.83;102714.91;5073428;28;45269;-67
2021/10/08 02:39:14;;;;;;;;;4.75;3.00;;;;;23.65;42.61;102713.94;5075227;28;45180;-67
2021/10/08 02:41:39;;;;;;;;;4.50;4.50;;;;;23.64;43.03;102715.75;5072479;28;46456;-67
2021/10/08 02:44:05;;;;;;;;;4.00;4.00;;;;;23.64;42.50;102718.41;5073107;28;45657;-67
2021/10/08 02:46:31;;;;;;;;;4.50;3.75;;;;;23.55;42.68;102700.69;5073285;28;45443;-67
2021/10/08 02:48:56;;;;;;;;;3.50;3.50;;;;;23.65;42.44;102721.91;5074521;28;45378;-66
2021/10/08 02:51:22;;;;;;;;;3.25;3.00;;;;;23.62;42.77;102723.88;5078531;28;45529;-67
2021/10/08 02:53:47;;;;;;;;;3.75;3.75;;;;;23.63;42.53;102714.91;5076154;28;45451;-67
2021/10/08 02:56:13;;;;;;;;;3.50;3.50;;;;;23.63;42.77;102722.03;5076378;28;45383;-67
2021/10/08 02:58:38;;;;;;;;;3.00;3.00;;;;;23.61;42.44;102716.03;5087748;27;45355;-67
2021/10/08 03:01:04;;;;;;;;;5.25;4.00;;;;;23.57;42.87;102715.50;5076029;27;46022;-66
2021/10/08 03:03:29;;;;;;;;;6.00;4.00;;;;;23.60;42.44;102715.19;5077867;28;45435;-67
2021/10/08 03:05:54;;;;;;;;;4.00;3.50;;;;;23.61;43.03;102714.22;5076889;28;45471;-67
2021/10/08 03:08:21;;;;;;;;;5.50;4.25;;;;;23.63;42.99;102716.72;5075975;28;45484;-67
2021/10/08 03:10:46;;;;;;;;;5.00;3.00;;;;;23.63;42.73;102714.91;5075883;28;45396;-67
2021/10/08 03:13:12;;;;;;;;;3.75;3.75;;;;;23.62;42.49;102715.91;5076204;28;45439;-66
2021/10/08 03:15:37;;;;;;;;;3.00;3.00;;;;;23.65;42.41;102716.59;5076828;28;45304;-67
2021/10/08 03:18:03;;;;;;;;;5.00;3.00;;;;;23.58;42.47;102711.84;5077720;28;45417;-67
2021/10/08 03:20:28;;;;;;;;;3.75;3.75;;;;;23.65;42.95;102719.25;5076059;28;45397;-66
2021/10/08 03:22:54;;;;;;;;;5.00;3.50;;;;;23.57;42.76;102710.19;5075909;28;45455;-67
2021/10/08 03:25:19;;;;;;;;;5.00;5.00;;;;;23.63;42.53;102719.38;5075744;28;45969;-67
2021/10/08 03:27:44;;;;;;;;;3.50;3.00;;;;;23.65;42.68;102722.75;5057401;28;45233;-67
2021/10/08 03:30:14;;;;;;;;;6.00;5.00;;;;;23.66;42.41;102723.56;5075840;28;46296;-67
2021/10/08 03:32:39;;;;;;;;;4.00;3.00;;;;;23.65;42.64;102721.91;5075666;28;45332;-66
2021/10/08 03:35:05;;;;;;;;;4.25;4.25;;;;;23.66;42.68;102719.09;5075740;28;45316;-66
2021/10/08 03:38:14;;;;;;;;;6.00;5.00;;;;;23.66;42.46;102720.91;5075958;28;45279;-67
2021/10/08 03:40:25;;;;;;;;;4.00;4.00;;;;;23.65;42.22;102721.91;5067107;28;45530;-67
2021/10/08 03:42:51;;;;;;;;;5.00;4.00;;;;;23.56;42.23;102705.00;5075587;28;45312;-66
2021/10/08 03:45:16;;;;;;;;;4.25;3.25;;;;;23.63;42.75;102720.22;5077311;28;45468;-67
2021/10/08 03:48:06;;;;;;;;;5.00;5.00;;;;;23.63;42.76;102725.53;5075672;28;45368;-67
2021/10/08 03:50:32;;;;;;;;;2.50;2.50;;;;;23.52;42.82;102709.78;5075395;28;47031;-66
2021/10/08 03:52:58;;;;;;;;;3.00;2.00;;;;;23.61;42.84;102722.19;5058035;28;46044;-67
2021/10/08 03:55:23;;;;;;;;;4.50;4.50;;;;;23.61;42.91;102721.34;5075612;27;45572;-67
2021/10/08 03:57:49;;;;;;;;;3.75;3.75;;;;;23.50;42.39;102709.06;5075813;28;45343;-67
2021/10/08 04:00:14;;;;;;;;;4.00;4.00;;;;;23.60;42.92;102730.31;5076020;28;45783;-67
2021/10/08 04:02:40;;;;;;;;;6.00;4.50;;;;;23.61;42.23;102729.31;5075430;28;45491;-67
2021/10/08 04:05:06;;;;;;;;;6.75;3.50;;;;;23.62;42.40;102734.50;5074749;28;45428;-67
2021/10/08 04:07:31;;;;;;;;;4.00;2.75;;;;;23.61;42.21;102732.81;5073618;28;45478;-67
2021/10/08 04:09:57;;;;;;;;;5.00;4.00;;;;;23.62;42.45;102736.31;5074976;28;46242;-67
2021/10/08 04:12:22;;;;;;;;;3.75;3.50;;;;;23.61;42.44;102729.31;5077426;28;45482;-67
2021/10/08 04:14:47;;;;;;;;;3.50;3.50;;;;;23.60;42.53;102731.13;5075197;28;45292;-67
2021/10/08 04:17:13;;;;;;;;;3.75;3.00;;;;;23.56;42.61;102732.41;5075192;28;45280;-67
2021/10/08 04:19:38;;;;;;;;;5.00;4.75;;;;;23.60;42.52;102738.28;5086115;27;46997;-67
2021/10/08 04:22:03;;;;;;;;;4.00;4.00;;;;;23.47;42.65;102718.13;5074739;28;45510;-67
2021/10/08 04:24:29;;;;;;;;;4.00;4.00;;;;;23.59;42.86;102733.94;5055549;28;45317;-66
2021/10/08 04:26:54;;;;;;;;;5.00;4.00;;;;;23.53;42.65;102735.34;5074322;28;45285;-67
2021/10/08 04:29:19;;;;;;;;;5.00;5.00;;;;;23.59;42.49;102741.91;5074666;28;45591;-67
2021/10/08 04:31:45;;;;;;;;;2.25;2.25;;;;;23.58;42.52;102734.91;5073005;28;45455;-67
2021/10/08 04:34:11;;;;;;;;;3.75;3.75;;;;;23.47;42.75;102725.28;5074961;27;45444;-67
2021/10/08 04:36:38;;;;;;;;;3.00;3.00;;;;;23.58;42.52;102746.38;5074765;28;45564;-67
2021/10/08 04:39:04;;;;;;;;;2.00;2.00;;;;;23.58;42.52;102748.19;5075960;28;45553;-66
2021/10/08 04:41:29;;;;;;;;;4.00;4.00;;;;;23.57;42.33;102749.19;5074484;28;48745;-66
2021/10/08 04:43:54;;;;;;;;;3.25;3.25;;;;;23.58;42.57;102745.53;5074807;28;45371;-67
2021/10/08 04:46:19;;;;;;;;;3.00;3.00;;;;;23.59;42.45;102752.53;5073248;28;45530;-67
2021/10/08 04:48:45;;;;;;;;;3.00;2.00;;;;;23.54;42.20;102736.19;5074312;28;46860;-67
2021/10/08 04:51:11;;;;;;;;;2.75;2.00;;;;;23.59;42.49;102747.22;5074772;28;45352;-66
2021/10/08 04:53:37;;;;;;;;;4.75;3.00;;;;;23.57;42.39;102744.72;5074495;28;45212;-67
2021/10/08 04:56:02;;;;;;;;;5.00;3.25;;;;;23.61;42.69;102737.28;5074570;28;45383;-67
2021/10/08 04:58:27;;;;;;;;;4.75;3.00;;;;;23.62;42.15;102744.28;5074359;28;46238;-66
2021/10/08 05:00:53;;;;;;;;;5.00;3.00;;;;;23.60;42.16;102733.78;5074462;28;46151;-67
2021/10/08 05:03:19;;;;;;;;;4.00;4.00;;;;;23.61;42.42;102739.94;5076353;28;45834;-66
2021/10/08 05:05:50;;;;;;;;;4.00;4.00;;;;;23.51;42.30;102721.38;5074050;28;45653;-66
2021/10/08 05:08:16;;;;;;;;;3.50;3.50;;;;;23.61;42.33;102737.28;5074116;28;46585;-66
2021/10/08 05:10:41;;;;;;;;;3.00;2.00;;;;;23.60;42.61;102733.78;5072398;28;45277;-66
2021/10/08 05:13:07;;;;;;;;;5.00;4.25;;;;;23.61;42.13;102732.81;5074256;28;45342;-66
2021/10/08 05:15:32;;;;;;;;;3.75;3.75;;;;;23.61;42.56;102739.94;5075851;28;45262;-67
2021/10/08 05:17:58;;;;;;;;;3.25;3.00;;;;;23.62;42.20;102744.28;5074698;28;45284;-66
2021/10/08 05:20:23;;;;;;;;;4.75;3.50;;;;;23.61;42.02;102743.44;5073785;28;45268;-66
2021/10/08 05:22:48;;;;;;;;;3.00;3.00;;;;;23.62;42.55;102746.94;5074055;28;45544;-66
2021/10/08 05:25:14;;;;;;;;;5.00;3.75;;;;;23.56;42.44;102737.72;5072688;28;45324;-66
2021/10/08 05:27:39;;;;;;;;;3.25;3.25;;;;;23.61;42.65;102738.13;5074004;28;45411;-66
2021/10/08 05:30:05;;;;;;;;;3.50;3.50;;;;;23.61;41.95;102750.56;5073707;28;45408;-66
2021/10/08 05:32:31;;;;;;;;;2.75;2.75;;;;;23.57;42.19;102746.53;5074092;28;45566;-66
2021/10/08 05:34:56;;;;;;;;;2.75;2.75;;;;;23.55;42.05;102751.97;5073542;28;45495;-66
2021/10/08 05:37:21;;;;;;;;;3.00;3.00;;;;;23.58;42.60;102756.16;5073914;28;45453;-66
2021/10/08 05:39:46;;;;;;;;;3.00;3.00;;;;;23.56;42.71;102756.31;5073975;28;45439;-67
2021/10/08 05:42:12;;;;;;;;;4.00;4.00;;;;;23.56;42.40;102752.81;5075641;28;45383;-67
2021/10/08 05:44:37;;;;;;;;;3.75;3.00;;;;;23.45;42.48;102737.84;5073866;28;45419;-67
2021/10/08 05:47:03;;;;;;;;;4.25;3.00;;;;;23.45;42.45;102744.00;5053871;28;45902;-67
2021/10/08 05:49:28;;;;;;;;;4.50;4.50;;;;;23.47;42.16;102746.53;5071900;28;45537;-67
2021/10/08 05:51:54;;;;;;;;;3.25;2.00;;;;;23.56;42.40;102763.44;5073948;28;45670;-67
2021/10/08 05:54:19;;;;;;;;;2.75;2.25;;;;;23.55;42.34;102770.56;5075537;28;45488;-67
2021/10/08 05:56:44;;;;;;;;;2.00;1.75;;;;;23.55;42.19;102759.94;5073612;28;45577;-67
2021/10/08 05:59:10;;;;;;;;;3.00;3.00;;;;;23.55;42.40;102756.47;5073379;28;45451;-67
2021/10/08 06:01:35;;;;;;;;;3.00;2.25;;;;;23.55;42.66;102762.59;5073589;28;45479;-67
2021/10/08 06:04:05;;;;;;;;;3.00;3.00;;;;;23.56;42.01;102758.97;5072110;28;45510;-67
2021/10/08 06:06:31;;;;;;;;;3.50;3.50;;;;;23.54;42.15;102758.28;5074795;28;46198;-67
2021/10/08 06:08:56;;;;;;;;;3.00;2.25;;;;;23.55;42.17;102762.59;5073948;28;45330;-67
2021/10/08 06:11:21;;;;;;;;;3.75;3.00;;;;;23.46;41.99;102755.47;5073796;28;45367;-67
2021/10/08 06:13:47;;;;;;;;;5.00;4.00;;;;;23.51;42.14;102764.72;5073504;28;45564;-67
2021/10/08 06:16:12;;;;;;;;;2.00;2.00;;;;;23.54;41.99;102771.56;5073508;28;46137;-67
2021/10/08 06:18:37;;;;;;;;;4.00;3.00;;;;;23.55;42.21;102777.72;5073486;28;45625;-68
2021/10/08 06:21:03;;;;;;;;;5.00;3.25;;;;;23.56;42.47;102782.03;5074889;28;45365;-67
2021/10/08 06:23:28;;;;;;;;;2.00;2.00;;;;;23.56;42.13;102788.22;5075537;28;45565;-66
2021/10/08 06:25:54;;;;;;;;;5.25;4.00;;;;;23.51;42.04;102772.69;5076794;28;46237;-68
2021/10/08 06:28:19;;;;;;;;;5.75;3.50;;;;;23.54;42.11;102770.72;5075329;28;45552;-67
2021/10/08 06:30:44;;;;;;;;;3.25;3.25;;;;;23.55;42.47;102770.56;5076964;28;45442;-67
2021/10/08 06:33:10;;;;;;;;;2.25;2.25;;;;;23.60;42.26;102781.63;5072456;28;45488;-66
2021/10/08 06:35:35;;;;;;;;;6.00;2.75;;;;;23.56;42.39;102764.28;5074177;28;47076;-68
2021/10/08 06:38:00;;;;;;;;;4.00;3.25;;;;;23.66;41.87;102780.19;5076557;28;45317;-68
2021/10/08 06:40:26;;;;;;;;;4.50;4.00;;;;;23.70;41.96;102780.75;5076296;28;45320;-69
2021/10/08 06:42:51;;;;;;;;;3.75;3.75;;;;;23.66;42.14;102777.53;5076715;28;45515;-68
2021/10/08 06:45:17;;;;;;;;;4.00;4.00;;;;;23.77;41.84;102787.16;5078004;28;45436;-66
2021/10/08 06:47:42;;;;;;;;;3.25;3.25;;;;;23.81;41.71;102791.19;5075961;28;45316;-66
2021/10/08 06:50:08;;;;;;;;;7.50;7.25;;;;;23.83;41.26;102789.25;5073883;28;45730;-67
2021/10/08 06:52:33;;;;;;;;;9.00;8.00;;;;;23.83;40.34;102785.75;5075833;28;45297;-66
2021/10/08 06:54:59;;;;;;;;;13.00;8.75;;;;;23.80;40.09;102784.22;5075867;28;46108;-67
2021/10/08 06:57:24;;;;;;;;;11.00;10.75;;;;;23.72;38.69;102781.44;5078124;28;45296;-66
2021/10/08 06:59:50;;;;;;;;;14.00;13.00;;;;;23.46;39.16;102758.13;5075235;28;45746;-70
2021/10/08 07:02:16;;;;;;;;;19.75;15.75;;;;;23.41;38.63;102790.44;5076080;28;45370;-69
2021/10/08 07:04:41;;;;;;;;;14.75;11.25;;;;;23.31;38.43;102792.28;5076418;28;46508;-69
2021/10/08 07:07:07;;;;;;;;;13.50;11.50;;;;;23.29;38.79;102792.41;5070355;28;45474;-71
2021/10/08 07:09:32;;;;;;;;;9.50;9.50;;;;;23.29;38.51;102795.06;5077625;28;45330;-70
2021/10/08 07:11:57;;;;;;;;;19.00;15.50;;;;;23.32;38.70;102797.44;5076849;28;45508;-70
2021/10/08 07:14:23;;;;;;;;;21.75;17.50;;;;;23.32;38.56;102802.75;5075744;28;45639;-70
2021/10/08 07:16:50;;;;;;;;;19.00;17.00;;;;;23.25;38.50;102785.69;5075704;28;45377;-68
2021/10/08 07:19:15;;;;;;;;;15.25;13.25;;;;;23.38;38.70;102804.84;5075753;28;45461;-68
2021/10/08 07:21:42;;;;;;;;;15.50;13.75;;;;;23.41;39.00;102806.38;5076702;28;45359;-68
2021/10/08 07:24:11;;;;;;;;;13.00;12.00;;;;;23.45;38.33;102810.41;5075734;28;46284;-68
2021/10/08 07:26:36;;;;;;;;;15.50;13.25;;;;;23.48;38.71;102818.13;5074855;28;45593;-68
2021/10/08 07:29:03;;;;;;;;;13.00;12.50;;;;;23.51;38.22;102814.38;5058518;28;45521;-68
2021/10/08 07:31:28;;;;;;;;;12.75;12.25;;;;;23.46;38.64;102796.16;5075347;28;45378;-68
2021/10/08 07:33:54;;;;;;;;;18.50;14.25;;;;;23.57;38.16;102802.34;5076144;28;45325;-68
2021/10/08 07:36:19;;;;;;;;;19.50;15.75;;;;;23.53;38.21;102799.13;5079030;28;45392;-68
2021/10/08 07:38:45;;;;;;;;;14.50;12.25;;;;;23.68;38.08;102811.97;5076156;28;45367;-67
2021/10/08 07:41:11;;;;;;;;;13.25;12.50;;;;;23.69;38.20;102803.84;5075987;28;45515;-68
2021/10/08 07:43:37;;;;;;;;;12.25;12.25;;;;;23.84;37.83;102814.00;5075284;28;46221;-68
2021/10/08 07:46:04;;;;;;;;;10.50;9.75;;;;;23.95;37.76;102818.31;5073823;28;45301;-68
2021/10/08 07:48:29;;;;;;;;;10.25;10.00;;;;;24.03;37.96;102815.75;5076780;28;45747;-67
2021/10/08 07:50:55;;;;;;;;;11.75;10.50;;;;;24.13;37.86;102805.09;5075842;28;45562;-68
2021/10/08 07:53:20;;;;;;;;;12.00;10.75;;;;;24.25;37.50;102810.22;5075367;28;45646;-68
2021/10/08 07:55:46;;;;;;;;;14.50;13.25;;;;;24.36;37.47;102806.53;5075239;28;45439;-67
2021/10/08 07:58:11;;;;;;;;;14.25;11.75;;;;;24.46;37.29;102807.31;5075557;28;45822;-67
2021/10/08 08:00:36;;;;;;;;;15.00;12.00;;;;;24.54;37.15;102805.75;5075779;28;45396;-68
2021/10/08 08:03:02;;;;;;;;;12.25;12.25;;;;;24.61;36.98;102804.16;5074646;28;47006;-68
2021/10/08 08:05:27;;;;;;;;;11.75;11.75;;;;;24.59;36.89;102788.31;5075056;28;45450;-68
2021/10/08 08:07:52;;;;;;;;;11.25;10.25;;;;;24.69;36.93;102798.09;5075284;28;45367;-68
2021/10/08 08:10:18;;;;;;;;;13.00;13.00;;;;;24.72;36.92;102797.78;5075248;28;45489;-67
2021/10/08 08:12:43;;;;;;;;;18.75;17.75;;;;;24.67;36.98;102779.59;5075238;28;46167;-68
2021/10/08 08:15:11;;;;;;;;;18.25;16.75;;;;;24.67;36.69;102778.78;5076593;28;45465;-68
2021/10/08 08:17:37;;;;;;;;;12.25;12.25;;;;;24.76;37.00;102790.31;5053970;28;45434;-68
2021/10/08 08:20:07;;;;;;;;;15.75;14.50;;;;;24.78;36.81;102785.69;5072991;28;45467;-68
2021/10/08 08:22:33;;;;;;;;;15.25;11.50;;;;;24.88;36.80;102793.63;5074529;28;47071;-68
2021/10/08 08:24:58;;;;;;;;;12.25;12.25;;;;;24.89;36.90;102796.13;5073037;28;45438;-68
2021/10/08 08:27:23;;;;;;;;;13.00;11.50;;;;;24.91;36.69;102798.63;5076214;28;45463;-68
2021/10/08 08:29:49;;;;;;;;;15.50;12.25;;;;;24.92;36.96;102795.81;5072868;28;45599;-68
2021/10/08 08:32:15;;;;;;;;;12.00;11.25;;;;;24.93;36.78;102794.00;5075008;28;46085;-68
2021/10/08 08:34:41;;;;;;;;;14.50;10.00;;;;;24.84;36.48;102780.59;5074052;28;45499;-68
2021/10/08 08:37:07;;;;;;;;;14.50;12.00;;;;;24.90;36.80;102786.31;5074684;28;45435;-68
2021/10/08 08:39:33;;;;;;;;;15.00;12.75;;;;;24.93;37.02;102794.81;5075773;28;45445;-68
2021/10/08 08:41:59;;;;;;;;;10.50;10.00;;;;;24.82;36.65;102765.78;5073642;28;46944;-68
2021/10/08 08:44:24;;;;;;;;;13.00;12.25;;;;;24.93;36.91;102794.00;5072533;28;45403;-68
2021/10/08 08:46:49;;;;;;;;;13.00;12.00;;;;;24.92;36.72;102790.50;5074007;28;45336;-68
2021/10/08 08:49:15;;;;;;;;;13.25;12.00;;;;;24.92;37.18;102797.63;5057646;28;45390;-68
2021/10/08 08:51:41;;;;;;;;;11.50;10.75;;;;;24.93;36.66;102791.34;5074549;28;46105;-68
2021/10/08 08:54:07;;;;;;;;;11.25;11.25;;;;;24.90;37.21;102780.97;5076379;28;45403;-68
2021/10/08 08:56:34;;;;;;;;;12.00;11.00;;;;;24.91;37.34;102783.47;5074428;28;45413;-68
2021/10/08 08:59:11;;;;;;;;;13.75;11.25;;;;;24.92;37.22;102790.50;5054168;28;45491;-68
2021/10/08 09:02:03;;;;;;;;;13.00;11.50;;;;;24.92;37.32;102784.31;5073738;28;46387;-68
2021/10/08 09:04:30;;;;;;;;;14.75;14.25;;;;;24.89;36.79;102776.63;5072636;28;45434;-69
2021/10/08 09:06:57;;;;;;;;;11.75;11.75;;;;;24.92;36.97;102784.31;5074441;28;45366;-68
2021/10/08 09:09:24;;;;;;;;;14.00;12.50;;;;;24.92;37.38;102785.16;5072139;28;45343;-66
2021/10/08 09:11:52;;;;;;;;;14.25;13.50;;;;;24.89;37.03;102773.97;5073359;28;45459;-68
2021/10/08 09:14:21;;;;;;;;;11.75;11.00;;;;;24.93;37.52;102776.16;5074290;28;45552;-67
2021/10/08 09:17:18;;;;;;;;;12.25;12.00;;;;;24.94;37.39;102779.69;5073952;28;45533;-68
2021/10/08 09:19:54;;;;;;;;;15.25;14.00;;;;;24.93;37.36;102776.16;5072421;28;45546;-68
2021/10/08 09:22:25;;;;;;;;;13.50;12.25;;;;;24.93;37.21;102778.84;5073895;28;46077;-68
2021/10/08 09:24:52;;;;;;;;;12.75;12.00;;;;;24.94;37.81;102779.69;5073971;28;45361;-68
2021/10/08 09:27:20;;;;;;;;;12.75;12.00;;;;;24.94;37.51;102775.19;5075740;28;45419;-68
2021/10/08 09:29:54;;;;;;;;;13.75;11.25;;;;;24.94;37.67;102772.53;5073882;28;45465;-68
2021/10/08 09:32:22;;;;;;;;;15.00;11.50;;;;;24.94;37.41;102771.69;5073598;28;47298;-68
2021/10/08 09:35:01;;;;;;;;;14.25;13.00;;;;;24.94;37.58;102771.69;5073708;28;45494;-68
2021/10/08 09:37:28;;;;;;;;;16.25;11.25;;;;;24.89;37.77;102765.97;5074228;28;47048;-69
2021/10/08 09:39:53;;;;;;;;;13.00;13.00;;;;;24.92;37.58;102773.66;5056568;28;45226;-69
2021/10/08 09:42:21;;;;;;;;;12.75;12.00;;;;;24.87;38.17;102770.63;5074803;28;46273;-70
2021/10/08 09:44:50;;;;;;;;;8.75;8.75;;;;;24.82;37.82;102773.75;5071915;28;45589;-69
2021/10/08 09:47:21;;;;;;;;;15.50;12.00;;;;;24.75;38.04;102773.50;5073498;28;45517;-69
2021/10/08 09:49:50;;;;;;;;;13.00;12.00;;;;;24.61;37.98;102772.22;5073580;28;45503;-69
2021/10/08 09:52:28;;;;;;;;;10.00;9.75;;;;;24.62;37.92;102776.53;5073737;28;46148;-69
2021/10/08 09:54:57;;;;;;;;;8.25;6.25;;;;;24.49;37.70;102759.13;5057055;28;45476;-69
2021/10/08 09:57:23;;;;;;;;;7.00;6.00;;;;;24.43;37.64;102762.41;5072226;28;45374;-69
2021/10/08 09:59:50;;;;;;;;;6.00;5.25;;;;;24.43;38.05;102764.22;5075407;27;45757;-69
2021/10/08 10:02:16;;;;;;;;;7.00;6.00;;;;;24.42;37.99;102771.38;5076766;28;46223;-69
2021/10/08 10:04:51;;;;;;;;;7.00;5.75;;;;;24.39;38.23;102769.84;5077001;28;45351;-69
2021/10/08 10:07:21;;;;;;;;;6.00;4.00;;;;;24.38;38.15;102775.31;5077087;28;45391;-69
2021/10/08 10:09:47;;;;;;;;;6.00;6.00;;;;;24.34;37.64;102760.63;5076943;28;45378;-69
2021/10/08 10:12:15;;;;;;;;;3.75;3.75;;;;;24.30;38.22;102768.09;5078707;28;47202;-69
2021/10/08 10:14:43;;;;;;;;;4.75;4.00;;;;;24.30;37.89;102757.44;5076996;28;45380;-69
2021/10/08 10:17:09;;;;;;;;;7.50;5.25;;;;;24.22;37.78;102752.84;5076986;28;45317;-68
2021/10/08 10:19:39;;;;;;;;;4.00;3.50;;;;;24.28;38.18;102764.72;5077139;28;45480;-69
2021/10/08 10:22:05;;;;;;;;;6.25;4.00;;;;;24.27;37.25;102752.41;5075065;28;46353;-69
2021/10/08 10:24:31;;;;;;;;;4.67;4.00;;;;;24.22;37.75;102758.16;5077682;28;45365;-68
2021/10/08 10:26:57;;;;;;;;;4.75;3.00;;;;;24.20;37.30;102749.47;5077543;28;45221;-69
2021/10/08 10:29:22;;;;;;;;;3.00;3.00;;;;;24.12;37.20;102734.28;5076895;28;45479;-69
2021/10/08 10:31:48;;;;;;;;;5.50;5.50;;;;;24.21;37.42;102760.94;5075644;28;45887;-69
2021/10/08 10:34:14;;;;;;;;;2.75;2.75;;;;;24.18;37.50;102757.59;5076680;28;46044;-69
2021/10/08 10:36:42;;;;;;;;;4.75;4.00;;;;;24.16;37.50;102759.59;5075257;27;45353;-70
2021/10/08 10:39:19;;;;;;;;;4.00;4.00;;;;;24.07;37.20;102732.03;5078802;27;45353;-72
2021/10/08 10:41:47;;;;;;;;;3.25;3.00;;;;;24.15;37.15;102746.41;5075637;27;45569;-71
2021/10/08 10:44:39;;;;;;;;;4.00;2.50;;;;;24.16;37.29;102754.25;5077021;27;46633;-72
2021/10/08 10:47:21;;;;;;;;;5.75;4.00;;;;;24.18;37.29;102760.28;5069437;27;45571;-71
2021/10/08 10:50:25;;;;;;;;;2.25;2.25;;;;;24.20;37.25;102749.47;5074248;27;45582;-70
2021/10/08 10:53:00;;;;;;;;;3.00;3.00;;;;;24.21;37.45;102751.16;5077707;27;50407;-71
2021/10/08 10:55:32;;;;;;;;;3.00;3.00;;;;;24.22;37.33;102752.00;5076800;28;45590;-70
2021/10/08 10:58:00;;;;;;;;;2.00;2.00;;;;;24.24;37.18;102748.19;5057838;27;45505;-72
2021/10/08 11:00:41;;;;;;;;;2.75;2.75;;;;;24.23;37.09;102743.84;5076240;27;45312;-70
2021/10/08 11:03:15;;;;;;;;;1.75;1.75;;;;;24.23;36.91;102741.19;5077031;27;46424;-70
2021/10/08 11:06:00;;;;;;;;;3.00;2.00;;;;;24.14;37.19;102734.13;5070026;27;45570;-71
2021/10/08 11:08:25;;;;;;;;;3.00;3.00;;;;;24.14;37.22;102745.59;5073830;27;45374;-71
2021/10/08 11:11:00;;;;;;;;;4.00;2.00;;;;;24.14;36.77;102750.09;5072908;28;45464;-70
2021/10/08 11:13:27;;;;;;;;;2.50;2.50;;;;;24.13;36.47;102751.91;5074908;27;46202;-70
2021/10/08 11:15:53;;;;;;;;;2.25;2.25;;;;;24.11;37.22;102750.38;5075916;28;45497;-69
2021/10/08 11:18:43;;;;;;;;;3.25;1.75;;;;;24.08;36.77;102751.50;5076005;28;45553;-69
2021/10/08 11:21:30;;;;;;;;;3.00;3.00;;;;;24.06;36.11;102738.38;5075706;27;45462;-69